sensor_id;sensor_type;location;lat;lon;timestamp;temperature;humidity
27779;DHT22;30234;48.090;11.464;2023-04-03T00:00:48;2.00;99.90
27779;DHT22;30234;48.090;11.464;2023-04-03T00:04:50;1.90;99.90
27779;DHT22;30234;48.090;11.464;2023-04-03T00:08:51;1.70;99.90
27779;DHT22;30234;48.090;11.464;2023-04-03T00:12:52;1.80;99.90
27779;DHT22;30234;48.090;11.464;2023-04-03T00:16:53;1.90;99.90
27779;DHT22;30234;48.090;11.464;2023-04-03T00:20:54;2.00;99.90
27779;DHT22;30234;48.090;11.464;2023-04-03T00:24:55;1.90;99.90
27779;DHT22;30234;48.090;11.464;2023-04-03T00:28:56;1.70;99.90
27779;DHT22;30234;48.090;11.464;2023-04-03T00:32:57;1.70;99.90
27779;DHT22;30234;48.090;11.464;2023-04-03T00:36:58;1.80;99.90
27779;DHT22;30234;48.090;11.464;2023-04-03T00:40:59;1.80;99.90
27779;DHT22;30234;48.090;11.464;2023-04-03T00:49:01;1.90;99.90
27779;DHT22;30234;48.090;11.464;2023-04-03T00:53:03;1.80;99.90
27779;DHT22;30234;48.090;11.464;2023-04-03T00:57:06;1.80;99.90
27779;DHT22;30234;48.090;11.464;2023-04-03T01:01:11;1.70;99.90
27779;DHT22;30234;48.090;11.464;2023-04-03T01:05:16;1.70;99.90
27779;DHT22;30234;48.090;11.464;2023-04-03T01:09:17;1.70;99.90
27779;DHT22;30234;48.090;11.464;2023-04-03T01:13:28;1.70;99.90
27779;DHT22;30234;48.090;11.464;2023-04-03T01:17:36;1.80;99.90
27779;DHT22;30234;48.090;11.464;2023-04-03T01:21:45;1.80;99.90
27779;DHT22;30234;48.090;11.464;2023-04-03T01:26:03;1.90;99.90
27779;DHT22;30234;48.090;11.464;2023-04-03T01:30:05;1.80;99.90
27779;DHT22;30234;48.090;11.464;2023-04-03T01:34:06;1.90;99.90
27779;DHT22;30234;48.090;11.464;2023-04-03T01:38:07;1.80;99.90
27779;DHT22;30234;48.090;11.464;2023-04-03T01:42:08;1.70;99.90
27779;DHT22;30234;48.090;11.464;2023-04-03T01:46:08;1.80;99.90
27779;DHT22;30234;48.090;11.464;2023-04-03T01:50:09;1.80;99.90
27779;DHT22;30234;48.090;11.464;2023-04-03T01:54:10;1.90;99.90
27779;DHT22;30234;48.090;11.464;2023-04-03T02:02:16;1.90;99.90
27779;DHT22;30234;48.090;11.464;2023-04-03T02:06:17;1.90;99.90
27779;DHT22;30234;48.090;11.464;2023-04-03T02:10:18;1.90;99.90
27779;DHT22;30234;48.090;11.464;2023-04-03T02:14:19;1.90;99.90
27779;DHT22;30234;48.090;11.464;2023-04-03T02:18:20;1.80;99.90
27779;DHT22;30234;48.090;11.464;2023-04-03T02:22:21;1.80;99.90
27779;DHT22;30234;48.090;11.464;2023-04-03T02:26:22;1.90;99.90
27779;DHT22;30234;48.090;11.464;2023-04-03T02:30:23;1.90;99.90
27779;DHT22;30234;48.090;11.464;2023-04-03T02:34:24;1.90;99.90
27779;DHT22;30234;48.090;11.464;2023-04-03T02:38:25;1.90;99.90
27779;DHT22;30234;48.090;11.464;2023-04-03T02:42:26;1.90;99.90
27779;DHT22;30234;48.090;11.464;2023-04-03T02:46:27;1.80;99.90
27779;DHT22;30234;48.090;11.464;2023-04-03T02:50:28;1.80;99.90
27779;DHT22;30234;48.090;11.464;2023-04-03T02:54:29;1.90;99.90
27779;DHT22;30234;48.090;11.464;2023-04-03T02:58:31;1.90;99.90
27779;DHT22;30234;48.090;11.464;2023-04-03T03:02:31;1.90;99.90
27779;DHT22;30234;48.090;11.464;2023-04-03T03:06:32;1.80;99.90
27779;DHT22;30234;48.090;11.464;2023-04-03T03:10:33;1.90;99.90
27779;DHT22;30234;48.090;11.464;2023-04-03T03:14:34;1.90;99.90
27779;DHT22;30234;48.090;11.464;2023-04-03T03:18:35;1.90;99.90
27779;DHT22;30234;48.090;11.464;2023-04-03T03:22:36;1.90;99.90
27779;DHT22;30234;48.090;11.464;2023-04-03T03:26:37;1.90;99.90
27779;DHT22;30234;48.090;11.464;2023-04-03T03:30:38;1.90;99.90
27779;DHT22;30234;48.090;11.464;2023-04-03T03:34:40;1.80;99.90
27779;DHT22;30234;48.090;11.464;2023-04-03T03:38:41;1.80;99.90
27779;DHT22;30234;48.090;11.464;2023-04-03T03:42:41;1.70;99.90
27779;DHT22;30234;48.090;11.464;2023-04-03T03:46:42;1.90;99.90
27779;DHT22;30234;48.090;11.464;2023-04-03T03:50:43;1.90;99.90
27779;DHT22;30234;48.090;11.464;2023-04-03T03:54:44;1.80;99.90
27779;DHT22;30234;48.090;11.464;2023-04-03T03:58:45;1.90;99.90
27779;DHT22;30234;48.090;11.464;2023-04-03T04:02:46;1.90;99.90
27779;DHT22;30234;48.090;11.464;2023-04-03T04:06:47;1.80;99.90
27779;DHT22;30234;48.090;11.464;2023-04-03T04:10:48;1.80;99.90
27779;DHT22;30234;48.090;11.464;2023-04-03T04:14:48;1.70;99.90
27779;DHT22;30234;48.090;11.464;2023-04-03T04:18:49;1.70;99.90
27779;DHT22;30234;48.090;11.464;2023-04-03T04:22:50;1.80;99.90
27779;DHT22;30234;48.090;11.464;2023-04-03T04:26:51;1.80;99.90
27779;DHT22;30234;48.090;11.464;2023-04-03T04:30:52;1.70;99.90
27779;DHT22;30234;48.090;11.464;2023-04-03T04:34:53;1.70;99.90
27779;DHT22;30234;48.090;11.464;2023-04-03T04:38:53;1.70;99.90
27779;DHT22;30234;48.090;11.464;2023-04-03T04:42:55;1.70;99.90
27779;DHT22;30234;48.090;11.464;2023-04-03T04:46:55;1.60;99.90
27779;DHT22;30234;48.090;11.464;2023-04-03T04:50:56;1.60;99.90
27779;DHT22;30234;48.090;11.464;2023-04-03T04:54:57;1.70;99.90
27779;DHT22;30234;48.090;11.464;2023-04-03T04:58:58;1.70;99.90
27779;DHT22;30234;48.090;11.464;2023-04-03T05:02:59;1.70;99.90
27779;DHT22;30234;48.090;11.464;2023-04-03T05:07:00;1.60;99.90
27779;DHT22;30234;48.090;11.464;2023-04-03T05:11:01;1.70;99.90
27779;DHT22;30234;48.090;11.464;2023-04-03T05:15:01;1.80;99.90
27779;DHT22;30234;48.090;11.464;2023-04-03T05:19:03;1.80;99.90
27779;DHT22;30234;48.090;11.464;2023-04-03T05:23:04;1.80;99.90
27779;DHT22;30234;48.090;11.464;2023-04-03T05:27:06;1.80;99.90
27779;DHT22;30234;48.090;11.464;2023-04-03T05:31:06;1.80;99.90
27779;DHT22;30234;48.090;11.464;2023-04-03T05:35:08;1.80;99.90
27779;DHT22;30234;48.090;11.464;2023-04-03T05:39:09;1.90;99.90
27779;DHT22;30234;48.090;11.464;2023-04-03T05:43:10;1.90;99.90
27779;DHT22;30234;48.090;11.464;2023-04-03T05:47:11;2.00;99.90
27779;DHT22;30234;48.090;11.464;2023-04-03T05:51:21;2.10;99.90
27779;DHT22;30234;48.090;11.464;2023-04-03T05:55:24;2.20;99.90
27779;DHT22;30234;48.090;11.464;2023-04-03T05:59:24;2.20;99.90
27779;DHT22;30234;48.090;11.464;2023-04-03T06:03:25;2.40;99.90
27779;DHT22;30234;48.090;11.464;2023-04-03T06:07:27;2.40;99.90
27779;DHT22;30234;48.090;11.464;2023-04-03T06:11:28;2.50;99.90
27779;DHT22;30234;48.090;11.464;2023-04-03T06:15:29;2.90;99.90
27779;DHT22;30234;48.090;11.464;2023-04-03T06:19:30;2.80;99.90
27779;DHT22;30234;48.090;11.464;2023-04-03T06:23:31;2.80;99.90
27779;DHT22;30234;48.090;11.464;2023-04-03T06:27:33;2.80;99.90
27779;DHT22;30234;48.090;11.464;2023-04-03T06:31:34;2.90;99.90
27779;DHT22;30234;48.090;11.464;2023-04-03T06:35:36;2.80;99.90
27779;DHT22;30234;48.090;11.464;2023-04-03T06:39:38;2.90;99.90
27779;DHT22;30234;48.090;11.464;2023-04-03T06:43:39;3.00;99.90
27779;DHT22;30234;48.090;11.464;2023-04-03T06:47:41;3.10;99.90
27779;DHT22;30234;48.090;11.464;2023-04-03T06:51:41;3.20;99.90
27779;DHT22;30234;48.090;11.464;2023-04-03T06:55:42;3.30;99.90
27779;DHT22;30234;48.090;11.464;2023-04-03T06:59:43;3.70;99.90
27779;DHT22;30234;48.090;11.464;2023-04-03T07:03:45;3.80;99.90
27779;DHT22;30234;48.090;11.464;2023-04-03T07:07:46;3.80;99.90
27779;DHT22;30234;48.090;11.464;2023-04-03T07:11:47;3.90;99.90
27779;DHT22;30234;48.090;11.464;2023-04-03T07:15:48;4.10;99.90
27779;DHT22;30234;48.090;11.464;2023-04-03T07:19:49;4.20;99.90
27779;DHT22;30234;48.090;11.464;2023-04-03T07:23:50;4.00;99.90
27779;DHT22;30234;48.090;11.464;2023-04-03T07:27:51;4.00;99.90
27779;DHT22;30234;48.090;11.464;2023-04-03T07:31:52;3.90;99.90
27779;DHT22;30234;48.090;11.464;2023-04-03T07:35:53;4.00;99.90
27779;DHT22;30234;48.090;11.464;2023-04-03T07:39:54;4.30;99.90
27779;DHT22;30234;48.090;11.464;2023-04-03T07:43:55;4.20;99.90
27779;DHT22;30234;48.090;11.464;2023-04-03T07:47:57;4.20;99.90
27779;DHT22;30234;48.090;11.464;2023-04-03T07:51:58;4.20;99.90
27779;DHT22;30234;48.090;11.464;2023-04-03T07:55:59;4.40;99.90
27779;DHT22;30234;48.090;11.464;2023-04-03T08:00:03;4.20;99.90
27779;DHT22;30234;48.090;11.464;2023-04-03T08:04:05;4.60;99.90
27779;DHT22;30234;48.090;11.464;2023-04-03T08:08:08;4.80;99.90
27779;DHT22;30234;48.090;11.464;2023-04-03T08:12:10;4.80;99.90
27779;DHT22;30234;48.090;11.464;2023-04-03T08:16:15;4.20;99.90
27779;DHT22;30234;48.090;11.464;2023-04-03T08:20:17;3.90;99.90
27779;DHT22;30234;48.090;11.464;2023-04-03T08:24:18;4.10;99.90
27779;DHT22;30234;48.090;11.464;2023-04-03T08:28:19;3.90;99.90
27779;DHT22;30234;48.090;11.464;2023-04-03T08:32:20;3.60;99.90
27779;DHT22;30234;48.090;11.464;2023-04-03T08:36:26;3.70;99.90
27779;DHT22;30234;48.090;11.464;2023-04-03T08:40:28;3.60;99.90
27779;DHT22;30234;48.090;11.464;2023-04-03T08:49:00;3.70;99.90
27779;DHT22;30234;48.090;11.464;2023-04-03T08:53:02;4.00;99.90
27779;DHT22;30234;48.090;11.464;2023-04-03T08:57:07;4.10;99.90
27779;DHT22;30234;48.090;11.464;2023-04-03T09:01:19;4.30;99.90
27779;DHT22;30234;48.090;11.464;2023-04-03T09:05:35;4.30;99.90
27779;DHT22;30234;48.090;11.464;2023-04-03T09:09:44;4.80;99.90
27779;DHT22;30234;48.090;11.464;2023-04-03T09:13:49;5.00;99.90
27779;DHT22;30234;48.090;11.464;2023-04-03T09:22:25;4.70;99.90
27779;DHT22;30234;48.090;11.464;2023-04-03T09:26:42;4.80;99.90
27779;DHT22;30234;48.090;11.464;2023-04-03T09:30:49;5.40;99.90
27779;DHT22;30234;48.090;11.464;2023-04-03T09:34:51;5.90;99.90
27779;DHT22;30234;48.090;11.464;2023-04-03T09:39:19;6.30;99.90
27779;DHT22;30234;48.090;11.464;2023-04-03T09:43:35;6.30;99.90
27779;DHT22;30234;48.090;11.464;2023-04-03T09:47:39;6.40;99.90
27779;DHT22;30234;48.090;11.464;2023-04-03T09:51:40;6.20;99.90
27779;DHT22;30234;48.090;11.464;2023-04-03T09:55:43;5.40;99.90
27779;DHT22;30234;48.090;11.464;2023-04-03T09:59:57;5.90;99.90
27779;DHT22;30234;48.090;11.464;2023-04-03T10:04:04;6.60;99.90
27779;DHT22;30234;48.090;11.464;2023-04-03T10:12:21;6.60;99.90
27779;DHT22;30234;48.090;11.464;2023-04-03T10:20:43;5.20;99.90
27779;DHT22;30234;48.090;11.464;2023-04-03T10:24:54;5.10;99.90
27779;DHT22;30234;48.090;11.464;2023-04-03T10:29:22;4.90;99.90
27779;DHT22;30234;48.090;11.464;2023-04-03T10:33:45;5.00;99.90
27779;DHT22;30234;48.090;11.464;2023-04-03T10:38:16;5.50;99.90
27779;DHT22;30234;48.090;11.464;2023-04-03T10:42:50;5.00;99.90
27779;DHT22;30234;48.090;11.464;2023-04-03T10:47:00;4.70;99.90
27779;DHT22;30234;48.090;11.464;2023-04-03T10:51:29;4.20;99.90
27779;DHT22;30234;48.090;11.464;2023-04-03T10:59:57;4.00;99.90
27779;DHT22;30234;48.090;11.464;2023-04-03T11:04:04;4.20;99.90
27779;DHT22;30234;48.090;11.464;2023-04-03T11:12:46;4.40;99.90
27779;DHT22;30234;48.090;11.464;2023-04-03T11:21:24;4.30;99.90
27779;DHT22;30234;48.090;11.464;2023-04-03T11:25:31;4.70;99.90
27779;DHT22;30234;48.090;11.464;2023-04-03T11:29:39;4.30;99.90
27779;DHT22;30234;48.090;11.464;2023-04-03T11:34:08;4.70;99.90
27779;DHT22;30234;48.090;11.464;2023-04-03T11:38:36;5.30;99.90
27779;DHT22;30234;48.090;11.464;2023-04-03T11:42:43;5.30;99.90
27779;DHT22;30234;48.090;11.464;2023-04-03T11:46:58;5.00;99.90
27779;DHT22;30234;48.090;11.464;2023-04-03T11:59:37;5.80;99.90
27779;DHT22;30234;48.090;11.464;2023-04-03T12:07:42;5.80;99.90
27779;DHT22;30234;48.090;11.464;2023-04-03T12:11:44;5.70;99.90
27779;DHT22;30234;48.090;11.464;2023-04-03T12:15:49;5.90;99.90
27779;DHT22;30234;48.090;11.464;2023-04-03T12:19:52;5.40;99.90
27779;DHT22;30234;48.090;11.464;2023-04-03T12:28:10;5.80;99.90
27779;DHT22;30234;48.090;11.464;2023-04-03T12:32:32;5.50;99.90
27779;DHT22;30234;48.090;11.464;2023-04-03T12:37:04;5.40;99.90
27779;DHT22;30234;48.090;11.464;2023-04-03T12:41:19;5.00;99.90
27779;DHT22;30234;48.090;11.464;2023-04-03T12:45:25;5.10;99.90
27779;DHT22;30234;48.090;11.464;2023-04-03T12:49:35;5.90;99.90
27779;DHT22;30234;48.090;11.464;2023-04-03T12:53:39;5.70;99.90
27779;DHT22;30234;48.090;11.464;2023-04-03T12:57:40;5.20;99.90
27779;DHT22;30234;48.090;11.464;2023-04-03T13:01:41;5.20;99.90
27779;DHT22;30234;48.090;11.464;2023-04-03T13:05:44;5.20;99.90
27779;DHT22;30234;48.090;11.464;2023-04-03T13:09:55;5.80;99.90
27779;DHT22;30234;48.090;11.464;2023-04-03T13:13:59;6.10;99.90
27779;DHT22;30234;48.090;11.464;2023-04-03T13:18:03;6.40;99.90
27779;DHT22;30234;48.090;11.464;2023-04-03T13:22:21;6.70;99.90
27779;DHT22;30234;48.090;11.464;2023-04-03T13:26:26;6.90;99.90
27779;DHT22;30234;48.090;11.464;2023-04-03T13:30:35;6.70;99.90
27779;DHT22;30234;48.090;11.464;2023-04-03T13:34:41;6.60;99.90
27779;DHT22;30234;48.090;11.464;2023-04-03T13:38:42;7.30;99.90
27779;DHT22;30234;48.090;11.464;2023-04-03T13:42:43;9.00;99.90
27779;DHT22;30234;48.090;11.464;2023-04-03T13:46:44;9.00;98.70
27779;DHT22;30234;48.090;11.464;2023-04-03T13:51:13;9.90;93.80
27779;DHT22;30234;48.090;11.464;2023-04-03T13:59:31;10.50;87.80
27779;DHT22;30234;48.090;11.464;2023-04-03T14:03:51;8.40;87.30
27779;DHT22;30234;48.090;11.464;2023-04-03T14:07:53;6.90;93.80
27779;DHT22;30234;48.090;11.464;2023-04-03T14:11:59;6.00;96.30
27779;DHT22;30234;48.090;11.464;2023-04-03T14:16:05;5.50;98.50
27779;DHT22;30234;48.090;11.464;2023-04-03T14:20:10;5.40;97.90
27779;DHT22;30234;48.090;11.464;2023-04-03T14:24:16;5.40;98.60
27779;DHT22;30234;48.090;11.464;2023-04-03T14:28:22;5.60;98.70
27779;DHT22;30234;48.090;11.464;2023-04-03T14:32:24;5.80;98.00
27779;DHT22;30234;48.090;11.464;2023-04-03T14:36:27;6.40;96.40
27779;DHT22;30234;48.090;11.464;2023-04-03T14:40:29;6.50;95.70
27779;DHT22;30234;48.090;11.464;2023-04-03T14:44:29;6.50;95.60
27779;DHT22;30234;48.090;11.464;2023-04-03T14:48:31;6.30;95.30
27779;DHT22;30234;48.090;11.464;2023-04-03T14:52:35;6.40;95.60
27779;DHT22;30234;48.090;11.464;2023-04-03T14:56:36;6.80;94.30
27779;DHT22;30234;48.090;11.464;2023-04-03T15:00:37;7.10;95.40
27779;DHT22;30234;48.090;11.464;2023-04-03T15:04:38;7.20;92.90
27779;DHT22;30234;48.090;11.464;2023-04-03T15:08:39;7.40;92.70
27779;DHT22;30234;48.090;11.464;2023-04-03T15:12:42;8.00;91.40
27779;DHT22;30234;48.090;11.464;2023-04-03T15:16:44;8.40;90.40
27779;DHT22;30234;48.090;11.464;2023-04-03T15:20:45;7.80;89.60
27779;DHT22;30234;48.090;11.464;2023-04-03T15:24:46;6.70;91.20
27779;DHT22;30234;48.090;11.464;2023-04-03T15:28:47;6.60;90.20
27779;DHT22;30234;48.090;11.464;2023-04-03T15:32:48;6.40;91.10
27779;DHT22;30234;48.090;11.464;2023-04-03T15:36:50;5.50;91.00
27779;DHT22;30234;48.090;11.464;2023-04-03T15:40:54;5.40;91.50
27779;DHT22;30234;48.090;11.464;2023-04-03T15:44:55;5.50;92.00
27779;DHT22;30234;48.090;11.464;2023-04-03T15:48:56;5.60;91.00
27779;DHT22;30234;48.090;11.464;2023-04-03T15:52:59;5.60;90.40
27779;DHT22;30234;48.090;11.464;2023-04-03T15:57:01;5.70;90.30
27779;DHT22;30234;48.090;11.464;2023-04-03T16:01:03;5.60;86.80
27779;DHT22;30234;48.090;11.464;2023-04-03T16:05:04;5.60;86.10
27779;DHT22;30234;48.090;11.464;2023-04-03T16:09:06;5.80;89.80
27779;DHT22;30234;48.090;11.464;2023-04-03T16:13:07;5.50;88.20
27779;DHT22;30234;48.090;11.464;2023-04-03T16:17:08;5.60;86.30
27779;DHT22;30234;48.090;11.464;2023-04-03T16:21:09;5.80;87.80
27779;DHT22;30234;48.090;11.464;2023-04-03T16:25:11;5.80;84.20
27779;DHT22;30234;48.090;11.464;2023-04-03T16:29:12;5.60;87.90
27779;DHT22;30234;48.090;11.464;2023-04-03T16:33:13;5.70;85.30
27779;DHT22;30234;48.090;11.464;2023-04-03T16:37:15;5.60;86.50
27779;DHT22;30234;48.090;11.464;2023-04-03T16:41:16;5.40;87.00
27779;DHT22;30234;48.090;11.464;2023-04-03T16:45:17;5.20;89.10
27779;DHT22;30234;48.090;11.464;2023-04-03T16:49:18;5.20;88.80
27779;DHT22;30234;48.090;11.464;2023-04-03T16:53:24;4.90;88.90
27779;DHT22;30234;48.090;11.464;2023-04-03T16:57:25;4.80;90.40
27779;DHT22;30234;48.090;11.464;2023-04-03T17:01:26;4.80;90.80
27779;DHT22;30234;48.090;11.464;2023-04-03T17:05:29;4.60;90.40
27779;DHT22;30234;48.090;11.464;2023-04-03T17:09:30;4.30;90.80
27779;DHT22;30234;48.090;11.464;2023-04-03T17:13:31;4.10;90.20
27779;DHT22;30234;48.090;11.464;2023-04-03T17:17:34;4.00;89.80
27779;DHT22;30234;48.090;11.464;2023-04-03T17:21:35;3.90;90.70
27779;DHT22;30234;48.090;11.464;2023-04-03T17:25:36;3.80;90.50
27779;DHT22;30234;48.090;11.464;2023-04-03T17:29:37;3.70;90.90
27779;DHT22;30234;48.090;11.464;2023-04-03T17:33:38;3.70;92.10
27779;DHT22;30234;48.090;11.464;2023-04-03T17:37:39;3.60;91.90
27779;DHT22;30234;48.090;11.464;2023-04-03T17:41:40;3.50;92.60
27779;DHT22;30234;48.090;11.464;2023-04-03T17:45:41;3.40;92.40
27779;DHT22;30234;48.090;11.464;2023-04-03T17:49:42;3.40;93.20
27779;DHT22;30234;48.090;11.464;2023-04-03T17:53:43;3.30;93.70
27779;DHT22;30234;48.090;11.464;2023-04-03T17:57:44;3.20;94.30
27779;DHT22;30234;48.090;11.464;2023-04-03T18:01:45;3.20;95.40
27779;DHT22;30234;48.090;11.464;2023-04-03T18:05:46;3.10;95.20
27779;DHT22;30234;48.090;11.464;2023-04-03T18:09:51;3.00;94.80
27779;DHT22;30234;48.090;11.464;2023-04-03T18:13:54;2.90;94.90
27779;DHT22;30234;48.090;11.464;2023-04-03T18:17:57;2.90;94.20
27779;DHT22;30234;48.090;11.464;2023-04-03T18:22:01;2.80;94.50
27779;DHT22;30234;48.090;11.464;2023-04-03T18:26:06;2.60;95.40
27779;DHT22;30234;48.090;11.464;2023-04-03T18:30:11;2.70;95.70
27779;DHT22;30234;48.090;11.464;2023-04-03T18:34:15;2.60;95.80
27779;DHT22;30234;48.090;11.464;2023-04-03T18:38:15;2.60;96.80
27779;DHT22;30234;48.090;11.464;2023-04-03T18:42:20;2.50;97.30
27779;DHT22;30234;48.090;11.464;2023-04-03T18:46:21;2.50;96.60
27779;DHT22;30234;48.090;11.464;2023-04-03T18:50:22;2.50;96.70
27779;DHT22;30234;48.090;11.464;2023-04-03T18:54:23;2.40;96.70
27779;DHT22;30234;48.090;11.464;2023-04-03T18:58:25;2.30;96.90
27779;DHT22;30234;48.090;11.464;2023-04-03T19:02:27;2.20;97.70
27779;DHT22;30234;48.090;11.464;2023-04-03T19:06:29;2.20;97.70
27779;DHT22;30234;48.090;11.464;2023-04-03T19:10:30;2.20;99.10
27779;DHT22;30234;48.090;11.464;2023-04-03T19:14:31;2.10;99.10
27779;DHT22;30234;48.090;11.464;2023-04-03T19:18:31;2.10;99.10
27779;DHT22;30234;48.090;11.464;2023-04-03T19:22:32;2.00;99.90
27779;DHT22;30234;48.090;11.464;2023-04-03T19:26:33;1.90;99.90
27779;DHT22;30234;48.090;11.464;2023-04-03T19:30:36;1.90;99.90
27779;DHT22;30234;48.090;11.464;2023-04-03T19:34:37;1.90;99.90
27779;DHT22;30234;48.090;11.464;2023-04-03T19:38:38;1.80;99.90
27779;DHT22;30234;48.090;11.464;2023-04-03T19:42:39;1.70;99.90
27779;DHT22;30234;48.090;11.464;2023-04-03T19:46:42;1.50;99.90
27779;DHT22;30234;48.090;11.464;2023-04-03T19:50:43;1.50;99.90
27779;DHT22;30234;48.090;11.464;2023-04-03T19:54:44;1.50;99.90
27779;DHT22;30234;48.090;11.464;2023-04-03T19:58:48;1.40;99.90
27779;DHT22;30234;48.090;11.464;2023-04-03T20:02:53;1.20;99.90
27779;DHT22;30234;48.090;11.464;2023-04-03T20:06:54;1.20;99.90
27779;DHT22;30234;48.090;11.464;2023-04-03T20:10:56;1.30;99.90
27779;DHT22;30234;48.090;11.464;2023-04-03T20:14:57;1.20;99.90
27779;DHT22;30234;48.090;11.464;2023-04-03T20:19:00;1.20;99.90
27779;DHT22;30234;48.090;11.464;2023-04-03T20:23:01;1.20;99.90
27779;DHT22;30234;48.090;11.464;2023-04-03T20:27:02;1.10;99.90
27779;DHT22;30234;48.090;11.464;2023-04-03T20:31:05;1.00;99.90
27779;DHT22;30234;48.090;11.464;2023-04-03T20:35:07;0.90;99.90
27779;DHT22;30234;48.090;11.464;2023-04-03T20:39:08;0.90;99.90
27779;DHT22;30234;48.090;11.464;2023-04-03T20:43:09;0.60;99.90
27779;DHT22;30234;48.090;11.464;2023-04-03T20:47:10;0.60;99.90
27779;DHT22;30234;48.090;11.464;2023-04-03T20:51:17;0.60;99.90
27779;DHT22;30234;48.090;11.464;2023-04-03T20:55:19;0.60;99.90
27779;DHT22;30234;48.090;11.464;2023-04-03T20:59:20;0.50;99.90
27779;DHT22;30234;48.090;11.464;2023-04-03T21:03:22;0.40;99.90
27779;DHT22;30234;48.090;11.464;2023-04-03T21:21:25;0.40;99.90
27779;DHT22;30234;48.090;11.464;2023-04-03T21:25:27;0.40;99.90
27779;DHT22;30234;48.090;11.464;2023-04-03T21:29:28;0.50;99.90
27779;DHT22;30234;48.090;11.464;2023-04-03T21:33:28;0.40;99.90
27779;DHT22;30234;48.090;11.464;2023-04-03T21:37:32;0.30;99.90
27779;DHT22;30234;48.090;11.464;2023-04-03T21:41:33;0.20;99.90
27779;DHT22;30234;48.090;11.464;2023-04-03T21:45:34;0.00;99.90
27779;DHT22;30234;48.090;11.464;2023-04-03T21:49:38;-0.30;99.90
27779;DHT22;30234;48.090;11.464;2023-04-03T21:53:39;-0.50;99.90
27779;DHT22;30234;48.090;11.464;2023-04-03T21:57:41;-0.80;99.90
27779;DHT22;30234;48.090;11.464;2023-04-03T22:01:42;-0.90;99.90
27779;DHT22;30234;48.090;11.464;2023-04-03T22:05:42;-0.80;99.90
27779;DHT22;30234;48.090;11.464;2023-04-03T22:09:43;-0.90;99.90
27779;DHT22;30234;48.090;11.464;2023-04-03T22:13:44;-1.10;99.90
27779;DHT22;30234;48.090;11.464;2023-04-03T22:17:45;-1.20;99.90
27779;DHT22;30234;48.090;11.464;2023-04-03T22:21:46;-1.10;99.90
27779;DHT22;30234;48.090;11.464;2023-04-03T22:26:08;-1.10;99.90
27779;DHT22;30234;48.090;11.464;2023-04-03T22:30:10;-1.20;99.90
27779;DHT22;30234;48.090;11.464;2023-04-03T22:34:11;-1.10;99.90
27779;DHT22;30234;48.090;11.464;2023-04-03T22:38:12;-1.00;99.90
27779;DHT22;30234;48.090;11.464;2023-04-03T22:42:16;-1.00;99.90
27779;DHT22;30234;48.090;11.464;2023-04-03T22:46:17;-1.00;99.90
27779;DHT22;30234;48.090;11.464;2023-04-03T22:50:17;-1.00;99.90
27779;DHT22;30234;48.090;11.464;2023-04-03T22:54:18;-0.90;99.90
27779;DHT22;30234;48.090;11.464;2023-04-03T22:58:19;-1.00;99.90
27779;DHT22;30234;48.090;11.464;2023-04-03T23:02:25;-0.80;99.90
27779;DHT22;30234;48.090;11.464;2023-04-03T23:06:25;-0.80;99.90
27779;DHT22;30234;48.090;11.464;2023-04-03T23:10:27;-0.80;99.90
27779;DHT22;30234;48.090;11.464;2023-04-03T23:14:28;-0.70;99.90
27779;DHT22;30234;48.090;11.464;2023-04-03T23:18:30;-0.70;99.90
27779;DHT22;30234;48.090;11.464;2023-04-03T23:22:32;-0.60;99.90
27779;DHT22;30234;48.090;11.464;2023-04-03T23:26:33;-0.70;99.90
27779;DHT22;30234;48.090;11.464;2023-04-03T23:30:34;-0.60;99.90
27779;DHT22;30234;48.090;11.464;2023-04-03T23:34:35;-0.60;99.90
27779;DHT22;30234;48.090;11.464;2023-04-03T23:38:36;-0.60;99.90
27779;DHT22;30234;48.090;11.464;2023-04-03T23:42:37;-0.60;99.90
27779;DHT22;30234;48.090;11.464;2023-04-03T23:46:39;-0.60;99.90
27779;DHT22;30234;48.090;11.464;2023-04-03T23:50:41;-0.70;99.90
27779;DHT22;30234;48.090;11.464;2023-04-03T23:54:44;-0.70;99.90
27779;DHT22;30234;48.090;11.464;2023-04-03T23:58:45;-0.80;99.90
